createdAt,value
2022-10-01T00:02:21.375Z,4.32
2022-10-01T00:04:48.899Z,4.38
2022-10-01T00:07:17.255Z,3.93
2022-10-01T00:09:46.953Z,4.55
2022-10-01T00:12:17.092Z,4.70
2022-10-01T00:14:44.859Z,4.35
2022-10-01T00:17:12.733Z,4.60
2022-10-01T00:19:42.349Z,4.73
2022-10-01T00:22:11.324Z,4.47
2022-10-01T00:24:38.792Z,4.38
2022-10-01T00:27:07.372Z,4.72
2022-10-01T00:29:36.791Z,4.80
2022-10-01T00:32:05.414Z,4.70
2022-10-01T00:34:34.372Z,5.47
2022-10-01T00:37:04.913Z,5.80
2022-10-01T00:39:32.500Z,7.13
2022-10-01T00:42:00.275Z,6.15
2022-10-01T00:44:37.789Z,6.37
2022-10-01T00:47:18.243Z,6.30
2022-10-01T00:49:47.543Z,6.57
2022-10-01T00:52:23.039Z,6.22
2022-10-01T00:54:56.147Z,6.32
2022-10-01T00:57:27.212Z,6.67
2022-10-01T00:59:57.810Z,6.13
2022-10-01T01:02:28.553Z,6.15
2022-10-01T01:04:56.722Z,6.68
2022-10-01T01:07:25.006Z,6.40
2022-10-01T01:09:57.427Z,5.80
2022-10-01T01:12:56.067Z,6.15
2022-10-01T01:15:27.288Z,5.78
2022-10-01T01:18:22.656Z,5.15
2022-10-01T01:21:15.908Z,5.38
2022-10-01T01:24:08.877Z,6.20
2022-10-01T01:27:09.518Z,6.20
2022-10-01T01:30:10.964Z,6.07
2022-10-01T01:32:54.166Z,5.70
2022-10-01T01:35:32.107Z,5.97
2022-10-01T01:38:21.678Z,6.27
2022-10-01T01:40:53.182Z,6.65
2022-10-01T01:43:31.606Z,7.00
2022-10-01T01:46:04.711Z,6.70
2022-10-01T01:48:36.816Z,6.43
2022-10-01T01:51:17.407Z,7.00
2022-10-01T01:53:45.588Z,6.43
2022-10-01T01:56:14.797Z,6.95
2022-10-01T01:58:52.471Z,6.82
2022-10-01T02:01:45.319Z,7.07
2022-10-01T02:04:37.295Z,7.63
2022-10-01T02:07:35.403Z,8.52
2022-10-01T02:10:24.812Z,9.13
2022-10-01T02:13:07.387Z,8.80
2022-10-01T02:15:55.526Z,7.90
2022-10-01T02:18:54.789Z,8.03
2022-10-01T02:21:38.971Z,8.13
2022-10-01T02:24:23.065Z,7.35
2022-10-01T02:26:54.630Z,8.30
2022-10-01T02:29:25.439Z,7.65
2022-10-01T02:31:57.751Z,6.90
2022-10-01T02:34:29.378Z,6.93
2022-10-01T02:37:01.510Z,7.00
2022-10-01T02:39:34.070Z,7.15
2022-10-01T02:42:04.422Z,7.85
2022-10-01T02:44:39.965Z,7.13
2022-10-01T02:47:21.524Z,6.97
2022-10-01T02:49:52.048Z,7.90
2022-10-01T02:52:42.219Z,6.85
2022-10-01T02:55:13.589Z,6.80
2022-10-01T02:57:42.733Z,6.40
2022-10-01T03:00:22.010Z,6.32
2022-10-01T03:02:50.712Z,7.03
2022-10-01T03:05:38.543Z,6.43
2022-10-01T03:08:07.348Z,6.07
2022-10-01T03:10:36.014Z,5.93
2022-10-01T03:13:07.845Z,5.43
2022-10-01T03:15:35.380Z,6.03
2022-10-01T03:18:02.875Z,5.47
2022-10-01T03:20:31.396Z,5.45
2022-10-01T03:22:58.829Z,5.47
2022-10-01T03:25:26.620Z,5.63
2022-10-01T03:27:55.364Z,5.38
2022-10-01T03:30:26.309Z,5.65
2022-10-01T03:32:53.766Z,5.97
2022-10-01T03:35:21.496Z,6.23
2022-10-01T03:37:49.636Z,5.47
2022-10-01T03:40:17.472Z,6.70
2022-10-01T03:42:46.419Z,5.75
2022-10-01T03:45:15.137Z,5.47
2022-10-01T03:47:45.094Z,5.97
2022-10-01T03:50:14.188Z,5.22
2022-10-01T03:52:43.998Z,5.68
2022-10-01T03:55:11.770Z,5.38
2022-10-01T03:57:39.243Z,5.47
2022-10-01T04:00:10.349Z,5.20
2022-10-01T04:02:40.518Z,5.43
2022-10-01T04:05:09.206Z,5.25
2022-10-01T04:07:36.737Z,5.53
2022-10-01T04:10:04.669Z,5.82
2022-10-01T04:12:32.132Z,5.90
2022-10-01T04:14:59.685Z,5.60
2022-10-01T04:17:30.496Z,5.50
2022-10-01T04:20:00.557Z,5.38
2022-10-01T04:22:29.355Z,4.53
2022-10-01T04:24:59.112Z,5.07
2022-10-01T04:27:27.273Z,5.05
2022-10-01T04:29:57.027Z,5.90
2022-10-01T04:32:24.731Z,5.40
2022-10-01T04:34:54.132Z,5.30
2022-10-01T04:37:24.283Z,5.40
2022-10-01T04:39:51.955Z,5.22
2022-10-01T04:42:22.673Z,5.57
2022-10-01T04:44:51.887Z,5.85
2022-10-01T04:47:19.294Z,5.47
2022-10-01T04:49:49.299Z,5.20
2022-10-01T04:52:19.587Z,5.88
2022-10-01T04:54:47.492Z,5.35
2022-10-01T04:57:14.933Z,5.22
2022-10-01T04:59:42.529Z,5.32
2022-10-01T05:02:10.454Z,4.63
2022-10-01T05:04:38.438Z,5.25
2022-10-01T05:07:07.685Z,5.53
2022-10-01T05:09:35.418Z,5.20
2022-10-01T05:12:03.109Z,5.15
2022-10-01T05:14:31.579Z,5.13
2022-10-01T05:17:00.510Z,5.03
2022-10-01T05:19:32.813Z,5.82
2022-10-01T05:22:00.593Z,5.40
2022-10-01T05:24:30.022Z,5.93
2022-10-01T05:26:58.159Z,4.97
2022-10-01T05:29:26.189Z,4.82
2022-10-01T05:31:54.681Z,5.20
2022-10-01T05:34:22.911Z,5.50
2022-10-01T05:36:55.750Z,5.70
2022-10-01T05:39:23.838Z,5.00
2022-10-01T05:41:56.812Z,4.90
2022-10-01T05:44:25.619Z,5.75
2022-10-01T05:46:54.453Z,5.68
2022-10-01T05:49:27.106Z,5.45
2022-10-01T05:51:54.554Z,5.20
2022-10-01T05:54:23.487Z,5.80
2022-10-01T05:56:51.748Z,6.47
2022-10-01T05:59:21.040Z,6.10
2022-10-01T06:01:48.692Z,7.20
2022-10-01T06:04:17.105Z,7.40
2022-10-01T06:06:48.101Z,6.68
2022-10-01T06:09:16.098Z,7.68
2022-10-01T06:11:45.467Z,6.90
2022-10-01T06:14:14.291Z,6.63
2022-10-01T06:16:42.049Z,6.10
2022-10-01T06:19:09.909Z,6.18
2022-10-01T06:21:38.224Z,6.20
2022-10-01T06:24:06.109Z,5.43
2022-10-01T06:26:33.577Z,5.80
2022-10-01T06:29:02.436Z,6.20
2022-10-01T06:31:30.872Z,5.85
2022-10-01T06:33:58.433Z,6.28
2022-10-01T06:36:25.957Z,6.00
2022-10-01T06:38:53.474Z,5.75
2022-10-01T06:41:21.010Z,5.07
2022-10-01T06:43:50.027Z,5.32
2022-10-01T06:46:17.538Z,5.32
2022-10-01T06:48:45.018Z,5.05
2022-10-01T06:51:12.539Z,5.28
2022-10-01T06:53:39.954Z,4.67
2022-10-01T06:56:08.244Z,5.63
2022-10-01T06:58:35.793Z,5.38
2022-10-01T07:01:04.782Z,6.22
2022-10-01T07:03:32.458Z,5.95
2022-10-01T07:06:05.123Z,5.73
2022-10-01T07:08:34.615Z,5.22
2022-10-01T07:11:04.029Z,6.00
2022-10-01T07:13:31.509Z,5.13
2022-10-01T07:16:04.122Z,5.05
2022-10-01T07:18:31.720Z,4.80
2022-10-01T07:20:59.265Z,5.43
2022-10-01T07:23:28.485Z,4.72
2022-10-01T07:25:55.987Z,4.80
2022-10-01T07:28:27.236Z,5.07
2022-10-01T07:31:07.034Z,5.37
2022-10-01T07:33:34.787Z,5.60
2022-10-01T07:36:07.409Z,6.10
2022-10-01T07:38:35.870Z,5.00
2022-10-01T07:41:03.882Z,4.97
2022-10-01T07:43:33.198Z,4.67
2022-10-01T07:46:02.270Z,4.97
2022-10-01T07:48:30.115Z,5.45
2022-10-01T07:50:58.119Z,5.22
2022-10-01T07:53:27.095Z,5.35
2022-10-01T07:55:55.093Z,4.80
2022-10-01T07:58:24.416Z,5.05
2022-10-01T08:00:56.376Z,5.00
2022-10-01T08:03:24.649Z,5.00
2022-10-01T08:05:53.914Z,4.82
2022-10-01T08:08:23.928Z,4.47
2022-10-01T08:10:51.514Z,4.47
2022-10-01T08:13:19.017Z,5.40
2022-10-01T08:15:50.825Z,5.13
2022-10-01T08:18:18.318Z,5.22
2022-10-01T08:20:47.106Z,5.57
2022-10-01T08:23:16.600Z,6.15
2022-10-01T08:25:45.929Z,6.15
2022-10-01T08:28:13.603Z,5.65
2022-10-01T08:30:42.786Z,6.55
2022-10-01T08:33:14.482Z,6.90
2022-10-01T08:35:43.890Z,7.18
2022-10-01T08:38:12.702Z,6.57
2022-10-01T08:40:47.611Z,7.43
2022-10-01T08:43:37.961Z,6.97
2022-10-01T08:46:13.972Z,7.07
2022-10-01T08:49:01.890Z,6.97
2022-10-01T08:51:43.727Z,6.38
2022-10-01T08:54:41.369Z,7.13
2022-10-01T08:57:37.687Z,5.60
2022-10-01T09:00:12.530Z,4.90
2022-10-01T09:02:42.270Z,5.63
2022-10-01T09:05:38.294Z,5.65
2022-10-01T09:08:43.973Z,5.35
2022-10-01T09:11:27.767Z,5.70
2022-10-01T09:14:11.817Z,5.83
2022-10-01T09:17:06.345Z,5.15
2022-10-01T09:20:01.724Z,5.72
2022-10-01T09:22:51.825Z,5.68
2022-10-01T09:25:25.229Z,5.70
2022-10-01T09:28:00.572Z,5.40
2022-10-01T09:30:30.515Z,5.82
2022-10-01T09:33:12.308Z,5.82
2022-10-01T09:35:49.140Z,5.53
2022-10-01T09:38:31.566Z,5.78
2022-10-01T09:40:59.808Z,5.73
2022-10-01T09:43:40.467Z,5.88
2022-10-01T09:46:13.818Z,4.75
2022-10-01T09:49:08.695Z,5.28
2022-10-01T09:51:45.413Z,5.70
2022-10-01T09:54:26.727Z,5.43
2022-10-01T09:56:58.774Z,5.18
2022-10-01T09:59:35.199Z,4.70
2022-10-01T10:02:08.613Z,4.80
2022-10-01T10:04:38.863Z,5.07
2022-10-01T10:07:06.540Z,4.37
2022-10-01T10:09:36.153Z,4.80
2022-10-01T10:12:03.979Z,4.50
2022-10-01T10:14:38.395Z,4.72
2022-10-01T10:17:12.087Z,4.47
2022-10-01T10:19:41.506Z,4.50
2022-10-01T10:22:25.157Z,4.57
2022-10-01T10:24:54.368Z,4.47
2022-10-01T10:27:27.092Z,4.90
2022-10-01T10:30:09.096Z,4.80
2022-10-01T10:32:37.002Z,4.53
2022-10-01T10:35:10.822Z,4.43
2022-10-01T10:37:45.516Z,4.93
2022-10-01T10:40:27.043Z,4.90
2022-10-01T10:42:58.891Z,5.03
2022-10-01T10:45:44.238Z,4.80
2022-10-01T10:48:17.346Z,4.68
2022-10-01T10:50:46.577Z,4.72
2022-10-01T10:53:26.200Z,4.72
2022-10-01T10:55:56.375Z,4.05
2022-10-01T10:58:30.313Z,4.10
2022-10-01T11:01:13.853Z,3.80
2022-10-01T11:03:53.613Z,4.78
2022-10-01T11:06:21.201Z,4.00
2022-10-01T11:08:57.963Z,4.03
2022-10-01T11:11:44.088Z,3.70
2022-10-01T11:14:31.652Z,4.25
2022-10-01T11:17:18.850Z,3.85
2022-10-01T11:19:55.765Z,4.20
2022-10-01T11:22:52.751Z,4.70
2022-10-01T11:25:27.434Z,3.80
2022-10-01T11:28:05.032Z,4.38
2022-10-01T11:30:54.547Z,4.70
2022-10-01T11:33:58.108Z,5.07
2022-10-01T11:36:55.446Z,4.00
2022-10-01T11:39:27.760Z,4.00
2022-10-01T11:42:20.099Z,4.00
2022-10-01T11:44:57.428Z,3.88
2022-10-01T11:47:37.018Z,4.05
2022-10-01T11:50:19.286Z,4.07
2022-10-01T11:53:07.039Z,3.77
2022-10-01T11:56:00.150Z,4.40
2022-10-01T11:58:53.206Z,4.68
2022-10-01T12:01:40.340Z,4.15
2022-10-01T12:04:14.609Z,4.13
2022-10-01T12:07:06.390Z,4.20
2022-10-01T12:09:53.965Z,3.55
2022-10-01T12:12:28.259Z,4.13
2022-10-01T12:15:17.128Z,3.97
2022-10-01T12:18:06.900Z,4.13
2022-10-01T12:20:43.812Z,4.33
2022-10-01T12:23:22.167Z,3.90
2022-10-01T12:26:01.958Z,3.80
2022-10-01T12:28:53.600Z,4.30
2022-10-01T12:31:35.190Z,4.05
2022-10-01T12:34:23.070Z,3.80
2022-10-01T12:37:22.053Z,3.65
2022-10-01T12:40:08.504Z,4.50
2022-10-01T12:42:49.930Z,4.70
2022-10-01T12:45:45.591Z,4.10
2022-10-01T12:48:39.767Z,3.93
2022-10-01T12:51:44.403Z,3.67
2022-10-01T12:54:50.894Z,3.92
2022-10-01T12:57:37.141Z,4.18
2022-10-01T13:00:20.077Z,4.40
2022-10-01T13:03:17.836Z,4.20
2022-10-01T13:06:06.582Z,4.40
2022-10-01T13:08:43.303Z,4.22
2022-10-01T13:11:36.635Z,4.00
2022-10-01T13:14:07.490Z,4.10
2022-10-01T13:16:44.094Z,4.00
2022-10-01T13:19:18.611Z,4.35
2022-10-01T13:22:17.444Z,4.28
2022-10-01T13:25:21.473Z,4.10
2022-10-01T13:28:12.008Z,4.05
2022-10-01T13:31:01.692Z,3.90
2022-10-01T13:33:32.417Z,3.78
2022-10-01T13:36:02.226Z,4.30
2022-10-01T13:38:41.006Z,3.95
2022-10-01T13:41:25.698Z,4.32
2022-10-01T13:43:59.523Z,4.13
2022-10-01T13:46:31.456Z,4.25
2022-10-01T13:49:21.654Z,4.00
2022-10-01T13:51:49.075Z,3.90
2022-10-01T13:54:37.591Z,4.50
2022-10-01T13:57:22.901Z,4.27
2022-10-01T14:00:00.037Z,4.18
2022-10-01T14:02:39.778Z,4.40
2022-10-01T14:05:26.089Z,4.75
2022-10-01T14:07:59.330Z,4.30
2022-10-01T14:10:56.729Z,4.23
2022-10-01T14:13:45.369Z,4.70
2022-10-01T14:16:14.387Z,4.35
2022-10-01T14:18:45.272Z,4.43
2022-10-01T14:22:00.328Z,4.40
2022-10-01T14:24:42.047Z,4.00
2022-10-01T14:27:39.189Z,4.35
2022-10-01T14:30:13.676Z,4.22
2022-10-01T14:33:18.444Z,4.10
2022-10-01T14:36:06.984Z,4.22
2022-10-01T14:38:34.843Z,4.27
2022-10-01T14:41:02.379Z,4.30
2022-10-01T14:43:31.765Z,4.75
2022-10-01T14:46:19.014Z,4.60
2022-10-01T14:48:58.124Z,4.57
2022-10-01T14:51:28.555Z,5.17
2022-10-01T14:53:59.247Z,4.70
2022-10-01T14:56:28.495Z,5.50
2022-10-01T14:59:03.031Z,5.43
2022-10-01T15:01:31.797Z,6.03
2022-10-01T15:03:59.298Z,6.27
2022-10-01T15:06:30.242Z,5.70
2022-10-01T15:09:12.845Z,7.30
2022-10-01T15:11:44.482Z,7.80
2022-10-01T15:14:19.424Z,7.28
2022-10-01T15:16:47.464Z,7.17
2022-10-01T15:19:20.890Z,6.90
2022-10-01T15:21:54.789Z,8.05
2022-10-01T15:24:37.099Z,7.32
2022-10-01T15:27:07.106Z,6.78
2022-10-01T15:29:35.758Z,7.13
2022-10-01T15:32:04.383Z,6.00
2022-10-01T15:34:32.817Z,6.20
2022-10-01T15:37:01.253Z,6.28
2022-10-01T15:39:37.799Z,6.25
2022-10-01T15:42:20.854Z,6.30
2022-10-01T15:44:50.257Z,5.35
2022-10-01T15:47:21.172Z,5.90
2022-10-01T15:50:18.740Z,5.53
2022-10-01T15:52:52.287Z,5.32
2022-10-01T15:55:24.096Z,5.30
2022-10-01T15:57:57.646Z,5.63
2022-10-01T16:00:31.635Z,5.30
2022-10-01T16:02:59.471Z,5.45
2022-10-01T16:05:31.790Z,4.78
2022-10-01T16:07:59.293Z,4.80
2022-10-01T16:10:34.897Z,4.80
2022-10-01T16:13:32.105Z,5.13
2022-10-01T16:16:15.368Z,4.78
2022-10-01T16:18:43.889Z,5.18
2022-10-01T16:21:12.151Z,5.27
2022-10-01T16:23:50.147Z,5.57
2022-10-01T16:26:34.698Z,5.10
2022-10-01T16:29:25.697Z,5.22
2022-10-01T16:31:53.640Z,5.60
2022-10-01T16:34:21.373Z,4.60
2022-10-01T16:36:49.130Z,4.90
2022-10-01T16:39:16.875Z,4.60
2022-10-01T16:42:06.161Z,5.05
2022-10-01T16:44:40.312Z,5.10
2022-10-01T16:47:10.481Z,4.77
2022-10-01T16:49:39.113Z,5.07
2022-10-01T16:52:06.744Z,5.18
2022-10-01T16:54:34.578Z,6.00
2022-10-01T16:57:04.887Z,5.70
2022-10-01T16:59:34.006Z,6.13
2022-10-01T17:02:02.606Z,7.38
2022-10-01T17:04:34.038Z,7.10
2022-10-01T17:07:02.004Z,6.18
2022-10-01T17:09:29.590Z,6.75
2022-10-01T17:11:58.248Z,6.90
2022-10-01T17:14:25.739Z,7.15
2022-10-01T17:16:53.779Z,8.60
2022-10-01T17:19:22.247Z,7.90
2022-10-01T17:21:49.676Z,7.97
2022-10-01T17:24:19.460Z,7.90
2022-10-01T17:26:47.366Z,7.22
2022-10-01T17:29:17.427Z,7.85
2022-10-01T17:31:46.800Z,7.00
2022-10-01T17:34:15.109Z,6.85
2022-10-01T17:36:42.571Z,7.77
2022-10-01T17:39:10.061Z,6.68
2022-10-01T17:41:37.685Z,7.00
2022-10-01T17:44:05.085Z,6.85
2022-10-01T17:46:35.602Z,6.65
2022-10-01T17:49:03.292Z,6.50
2022-10-01T17:51:30.843Z,7.82
2022-10-01T17:54:00.014Z,8.55
2022-10-01T17:56:27.548Z,8.00
2022-10-01T17:58:55.171Z,7.60
2022-10-01T18:01:23.019Z,6.77
2022-10-01T18:04:00.465Z,6.22
2022-10-01T18:06:27.946Z,6.28
2022-10-01T18:08:56.472Z,5.68
2022-10-01T18:11:27.474Z,5.60
2022-10-01T18:13:55.030Z,5.00
2022-10-01T18:16:23.030Z,5.55
2022-10-01T18:21:49.232Z,4.72
2022-10-01T18:24:17.151Z,5.07
2022-10-01T18:26:45.996Z,5.33
2022-10-01T18:29:25.144Z,5.53
2022-10-01T18:32:05.308Z,5.57
2022-10-01T18:34:40.594Z,5.95
2022-10-01T18:37:18.275Z,5.18
2022-10-01T18:39:53.291Z,5.53
2022-10-01T18:42:32.895Z,5.22
2022-10-01T18:45:02.709Z,4.60
2022-10-01T18:47:55.124Z,5.22
2022-10-01T18:50:52.758Z,4.65
2022-10-01T18:53:45.335Z,4.90
2022-10-01T18:56:21.543Z,4.53
2022-10-01T18:59:04.199Z,4.95
2022-10-01T19:01:43.468Z,4.57
2022-10-01T19:04:39.031Z,5.28
2022-10-01T19:07:33.638Z,4.70
2022-10-01T19:10:08.419Z,5.03
2022-10-01T19:13:02.094Z,5.00
2022-10-01T19:15:45.279Z,5.03
2022-10-01T19:18:31.124Z,5.13
2022-10-01T19:21:45.520Z,5.27
2022-10-01T19:24:38.539Z,4.55
2022-10-01T19:27:23.955Z,4.20
2022-10-01T19:30:02.972Z,4.63
2022-10-01T19:32:39.919Z,4.35
2022-10-01T19:35:17.431Z,4.33
2022-10-01T19:38:05.902Z,4.63
2022-10-01T19:40:39.167Z,4.45
2022-10-01T19:43:21.510Z,4.30
2022-10-01T19:46:15.412Z,4.95
2022-10-01T19:49:15.385Z,4.77
2022-10-01T19:51:52.308Z,4.40
2022-10-01T19:54:22.725Z,4.80
2022-10-01T19:56:54.689Z,4.53
2022-10-01T19:59:22.907Z,4.55
2022-10-01T20:01:59.184Z,4.30
2022-10-01T20:04:29.363Z,4.65
2022-10-01T20:07:11.839Z,5.13
2022-10-01T20:09:45.782Z,4.78
2022-10-01T20:12:36.436Z,4.70
2022-10-01T20:15:37.846Z,3.90
2022-10-01T20:18:14.868Z,4.22
2022-10-01T20:21:23.538Z,4.25
2022-10-01T20:24:08.288Z,4.25
2022-10-01T20:26:46.889Z,4.32
2022-10-01T20:29:25.848Z,4.10
2022-10-01T20:32:07.038Z,4.15
2022-10-01T20:34:52.873Z,4.03
2022-10-01T20:37:49.085Z,4.18
2022-10-01T20:40:40.873Z,3.65
2022-10-01T20:43:30.954Z,4.10
2022-10-01T20:46:03.474Z,3.78
2022-10-01T20:48:37.172Z,3.95
2022-10-01T20:51:16.216Z,4.03
2022-10-01T20:53:53.734Z,4.05
2022-10-01T20:56:34.013Z,4.23
2022-10-01T20:59:11.812Z,4.68
2022-10-01T21:01:46.571Z,4.78
2022-10-01T21:04:23.400Z,4.68
2022-10-01T21:07:01.454Z,4.78
2022-10-01T21:09:38.666Z,3.90
2022-10-01T21:12:16.240Z,4.10
2022-10-01T21:14:53.908Z,4.20
2022-10-01T21:17:40.490Z,3.97
2022-10-01T21:20:21.262Z,4.70
2022-10-01T21:23:35.384Z,4.10
2022-10-01T21:26:11.192Z,4.13
2022-10-01T21:28:56.798Z,4.50
2022-10-01T21:31:42.945Z,4.30
2022-10-01T21:34:22.701Z,4.53
2022-10-01T21:37:03.734Z,4.73
2022-10-01T21:39:41.093Z,4.55
2022-10-01T21:42:17.286Z,4.75
2022-10-01T21:45:06.458Z,4.53
2022-10-01T21:47:54.170Z,4.60
2022-10-01T21:50:46.815Z,4.33
2022-10-01T21:53:38.366Z,4.90
2022-10-01T21:56:14.353Z,4.75
2022-10-01T21:59:11.109Z,4.90
2022-10-01T22:02:15.088Z,4.78
2022-10-01T22:04:53.034Z,4.60
2022-10-01T22:07:42.454Z,4.15
2022-10-01T22:10:19.404Z,4.50
2022-10-01T22:12:52.187Z,4.80
2022-10-01T22:15:33.405Z,4.22
2022-10-01T22:18:05.088Z,3.97
2022-10-01T22:20:35.260Z,3.92
2022-10-01T22:23:09.429Z,4.13
2022-10-01T22:25:43.328Z,4.05
2022-10-01T22:28:19.004Z,3.95
2022-10-01T22:30:50.272Z,4.00
2022-10-01T22:33:33.137Z,4.10
2022-10-01T22:36:07.259Z,4.50
2022-10-01T22:38:44.731Z,4.80
2022-10-01T22:41:41.214Z,4.10
2022-10-01T22:44:20.532Z,3.73
2022-10-01T22:47:02.008Z,4.43
2022-10-01T22:49:55.077Z,4.07
2022-10-01T22:52:47.078Z,3.95
2022-10-01T22:55:37.201Z,3.65
2022-10-01T22:58:22.391Z,4.03
2022-10-01T23:01:12.402Z,4.07
2022-10-01T23:04:00.035Z,4.53
2022-10-01T23:06:45.651Z,4.50
2022-10-01T23:09:16.302Z,4.38
2022-10-01T23:11:58.759Z,4.47
2022-10-01T23:14:53.759Z,4.43
2022-10-01T23:17:35.316Z,4.72
2022-10-01T23:20:21.167Z,4.32
2022-10-01T23:22:54.904Z,4.72
2022-10-01T23:25:44.321Z,4.10
2022-10-01T23:28:42.217Z,4.00
2022-10-01T23:31:34.823Z,4.82
2022-10-01T23:34:40.558Z,4.45
2022-10-01T23:37:45.487Z,4.63
2022-10-01T23:40:20.955Z,4.37
2022-10-01T23:43:19.754Z,4.55
2022-10-01T23:45:55.338Z,4.45
2022-10-01T23:48:32.041Z,4.35
2022-10-01T23:51:14.843Z,4.07
2022-10-01T23:54:08.722Z,4.20
2022-10-01T23:56:51.504Z,4.30
2022-10-01T23:59:28.051Z,4.22
